Time;durP1;ratioP1;P1;durP2;ratioP2;P2;SDS_P1;SDS_P2;PMS_P1;PMS_P2;Temp;Humidity;BMP_temperature;BMP_pressure;BME280_temperature;BME280_humidity;BME280_pressure;Samples;Min_cycle;Max_cycle;Signal;HPM_P1;HPM_P2
2023/07/12 00:01:12;;;;;;;;;;;;;;;18.39;85.16;101212.34;107506;1251;99728;-62
2023/07/12 00:03:40;;;;;;;;;;;;;;;18.39;84.66;101214.76;107506;1255;112782;-62
2023/07/12 00:06:19;;;;;;;;;;;;;;;18.38;84.53;101218.11;107489;1251;108963;-60
2023/07/12 00:08:48;;;;;;;;;;;;;;;18.37;84.38;101216.54;107490;1251;108907;-61
2023/07/12 00:11:21;;;;;;;;;;;;;;;18.37;84.47;101223.82;107476;1251;99071;-62
2023/07/12 00:13:49;;;;;;;;;;;;;;;18.38;84.13;101226.33;107514;1255;99060;-62
2023/07/12 00:16:23;;;;;;;;;;;;;;;18.37;83.69;101226.41;107539;1251;115070;-61
2023/07/12 00:18:52;;;;;;;;;;;;;;;18.37;83.66;101231.68;107528;1254;109620;-62
2023/07/12 00:21:24;;;;;;;;;;;;;;;18.36;83.37;101231.62;107607;1256;108149;-62
2023/07/12 00:23:53;;;;;;;;;;;;;;;18.36;83.30;101229.27;107616;1251;99158;-61
2023/07/12 00:26:28;;;;;;;;;;;;;;;18.35;83.06;101225.56;107559;1251;99150;-61
2023/07/12 00:28:56;;;;;;;;;;;;;;;18.35;82.92;101219.58;107514;1251;112877;-59
2023/07/12 00:31:25;;;;;;;;;;;;;;;18.32;82.64;101217.88;107594;1251;109593;-61
2023/07/12 00:33:53;;;;;;;;;;;;;;;18.29;82.49;101214.97;107557;1251;108492;-62
2023/07/12 00:36:23;;;;;;;;;;;;;;;18.20;81.93;101215.06;107537;1251;99652;-62
2023/07/12 00:38:52;;;;;;;;;;;;;;;18.17;81.77;101209.25;107554;1252;99042;-61
2023/07/12 00:41:47;;;;;;;;;;;;;;;18.15;81.96;101207.92;107541;1251;113847;-61
2023/07/12 00:44:21;;;;;;;;;;;;;;;18.15;81.83;101202.38;107553;1254;109380;-62
2023/07/12 00:46:53;;;;;;;;;;;;;;;18.13;81.61;101193.75;107581;1251;111359;-66
2023/07/12 00:49:24;;;;;;;;;;;;;;;18.10;81.29;101188.59;107352;1257;99186;-60
2023/07/12 00:51:59;;;;;;;;;;;;;;;18.07;81.13;101184.08;107555;1254;99403;-60
2023/07/12 00:54:46;;;;;;;;;;;;;;;18.04;81.08;101176.66;107569;1251;113513;-61
2023/07/12 00:57:14;;;;;;;;;;;;;;;17.98;80.76;101170.73;107569;1254;111335;-62
2023/07/12 00:59:45;;;;;;;;;;;;;;;17.94;80.61;101175.90;107645;1253;107931;-61
2023/07/12 01:02:14;;;;;;;;;;;;;;;17.90;80.77;101179.41;107504;1251;99160;-62
2023/07/12 01:04:47;;;;;;;;;;;;;;;17.81;80.40;101182.77;107610;1251;99367;-59
2023/07/12 01:07:16;;;;;;;;;;;;;;;17.76;80.74;101183.15;107543;1256;111711;-61
2023/07/12 01:09:44;;;;;;;;;;;;;;;17.75;80.75;101188.39;107511;1251;109008;-63
2023/07/12 01:12:13;;;;;;;;;;;;;;;17.73;80.57;101183.36;107581;1256;108785;-66
2023/07/12 01:14:42;;;;;;;;;;;;;;;17.69;80.44;101182.83;107611;1251;99218;-61
2023/07/12 01:17:11;;;;;;;;;;;;;;;17.65;80.17;101186.33;107604;1256;99077;-61
2023/07/12 01:19:39;;;;;;;;;;;;;;;17.61;79.97;101183.73;107644;1251;113044;-61
2023/07/12 01:22:07;;;;;;;;;;;;;;;17.58;79.90;101187.66;107628;1254;110111;-62
2023/07/12 01:24:36;;;;;;;;;;;;;;;17.55;80.23;101196.08;107624;1256;107438;-60
2023/07/12 01:27:21;;;;;;;;;;;;;;;17.50;80.42;101194.24;107506;1251;99168;-60
2023/07/12 01:29:50;;;;;;;;;;;;;;;17.44;80.66;101191.25;107521;1256;99252;-62
2023/07/12 01:32:18;;;;;;;;;;;;;;;17.41;80.77;101190.10;107501;1255;112782;-63
2023/07/12 01:34:46;;;;;;;;;;;;;;;17.40;80.81;101188.77;107537;1256;109378;-60
2023/07/12 01:37:15;;;;;;;;;;;;;;;17.40;80.80;101190.58;107523;1256;108818;-60
2023/07/12 01:39:44;;;;;;;;;;;;;;;17.41;80.80;101188.95;107548;1251;99156;-64
2023/07/12 01:42:11;;;;;;;;;;;;;;;17.40;80.88;101186.59;107493;1251;99191;-61
2023/07/12 01:44:43;;;;;;;;;;;;;;;17.40;80.75;101195.50;107529;1251;114087;-61
2023/07/12 01:47:11;;;;;;;;;;;;;;;17.40;80.92;101198.98;107574;1257;110017;-61
2023/07/12 01:49:39;;;;;;;;;;;;;;;17.40;81.11;101201.50;107556;1257;106069;-61
2023/07/12 01:52:07;;;;;;;;;;;;;;;17.37;80.91;101208.13;107580;1252;99913;-62
2023/07/12 01:54:35;;;;;;;;;;;;;;;17.24;81.06;101214.17;107522;1251;99224;-63
2023/07/12 01:57:04;;;;;;;;;;;;;;;17.04;82.72;101217.77;107577;1251;112693;-63
2023/07/12 01:59:32;;;;;;;;;;;;;;;16.85;84.13;101215.36;107595;1251;109499;-61
2023/07/12 02:02:00;;;;;;;;;;;;;;;16.77;82.84;101219.89;107469;1256;109146;-61
2023/07/12 02:04:29;;;;;;;;;;;;;;;16.77;83.24;101214.28;107494;1251;99250;-61
2023/07/12 02:06:57;;;;;;;;;;;;;;;16.81;83.02;101217.92;107526;1253;99055;-62
2023/07/12 02:09:39;;;;;;;;;;;;;;;16.85;83.16;101221.54;107562;1251;113432;-62
2023/07/12 02:12:08;;;;;;;;;;;;;;;16.88;82.76;101229.40;107574;1256;109596;-60
2023/07/12 02:14:37;;;;;;;;;;;;;;;16.91;82.32;101232.14;107509;1254;107677;-64
2023/07/12 02:17:05;;;;;;;;;;;;;;;16.93;82.65;101231.06;107535;1251;99135;-61
2023/07/12 02:19:33;;;;;;;;;;;;;;;16.93;82.15;101235.96;107533;1251;99044;-61
2023/07/12 02:22:01;;;;;;;;;;;;;;;16.93;81.91;101239.82;107606;1254;112164;-63
2023/07/12 02:24:30;;;;;;;;;;;;;;;16.92;83.31;101243.63;107522;1251;110691;-61
2023/07/12 02:26:58;;;;;;;;;;;;;;;16.87;83.96;101248.88;107491;1251;108568;-60
2023/07/12 02:29:26;;;;;;;;;;;;;;;16.79;83.70;101253.71;107514;1257;99240;-61
2023/07/12 02:31:55;;;;;;;;;;;;;;;16.74;83.63;101260.77;107504;1251;99169;-61
2023/07/12 02:34:23;;;;;;;;;;;;;;;16.72;84.09;101260.41;107567;1257;112257;-63
2023/07/12 02:36:52;;;;;;;;;;;;;;;16.69;84.49;101260.58;107523;1254;109025;-61
2023/07/12 02:39:20;;;;;;;;;;;;;;;16.64;84.71;101257.67;107626;1257;108065;-62
2023/07/12 02:41:48;;;;;;;;;;;;;;;16.58;85.34;101255.62;107611;1256;99256;-62
2023/07/12 02:44:16;;;;;;;;;;;;;;;16.50;85.99;101254.60;107623;1254;99179;-62
2023/07/12 02:46:44;;;;;;;;;;;;;;;16.45;86.38;101261.29;107607;1255;112771;-60
2023/07/12 02:49:13;;;;;;;;;;;;;;;16.41;86.45;101263.89;107635;1254;109219;-62
2023/07/12 02:51:43;;;;;;;;;;;;;;;16.40;86.79;101266.34;107561;1251;107593;-60
2023/07/12 02:54:11;;;;;;;;;;;;;;;16.43;86.49;101264.08;107637;1251;99213;-62
2023/07/12 02:56:39;;;;;;;;;;;;;;;16.46;86.09;101262.49;107566;1256;99163;-63
2023/07/12 02:59:07;;;;;;;;;;;;;;;16.50;86.01;101266.18;107550;1251;112415;-60
2023/07/12 03:01:35;;;;;;;;;;;;;;;16.53;86.26;101267.48;107523;1251;110281;-61
2023/07/12 03:04:03;;;;;;;;;;;;;;;16.56;85.90;101269.97;107487;1250;107454;-61
2023/07/12 03:06:31;;;;;;;;;;;;;;;16.60;85.44;101272.19;107596;1251;99185;-64
2023/07/12 03:09:00;;;;;;;;;;;;;;;16.65;85.57;101278.45;107548;1251;99253;-62
2023/07/12 03:11:28;;;;;;;;;;;;;;;16.66;85.32;101277.55;107581;1254;112481;-64
2023/07/12 03:13:56;;;;;;;;;;;;;;;16.68;85.17;101277.39;107516;1251;110967;-62
2023/07/12 03:16:24;;;;;;;;;;;;;;;16.70;84.83;101281.34;107489;1251;108932;-61
2023/07/12 03:18:52;;;;;;;;;;;;;;;16.72;84.78;101282.38;107567;1251;99169;-60
2023/07/12 03:21:21;;;;;;;;;;;;;;;16.74;84.68;101279.24;107543;1251;99064;-60
2023/07/12 03:23:49;;;;;;;;;;;;;;;16.76;84.73;101289.70;107575;1252;112273;-60
2023/07/12 03:26:17;;;;;;;;;;;;;;;16.74;85.13;101290.52;107495;1254;108950;-63
2023/07/12 03:28:46;;;;;;;;;;;;;;;16.74;84.96;101291.77;107548;1251;107918;-61
2023/07/12 03:31:18;;;;;;;;;;;;;;;16.79;85.05;101294.54;107543;1251;99222;-62
2023/07/12 03:33:47;;;;;;;;;;;;;;;16.85;84.61;101293.98;107553;1251;99149;-61
2023/07/12 03:36:15;;;;;;;;;;;;;;;16.94;84.72;101297.87;107508;1254;113239;-62
2023/07/12 03:38:43;;;;;;;;;;;;;;;17.01;84.38;101307.06;107582;1257;109908;-62
2023/07/12 03:41:14;;;;;;;;;;;;;;;17.08;84.21;101316.09;107645;1251;107317;-61
2023/07/12 03:43:46;;;;;;;;;;;;;;;17.14;84.14;101319.78;107463;1251;99155;-61
2023/07/12 03:46:14;;;;;;;;;;;;;;;17.14;83.90;101320.45;107569;1251;99166;-62
2023/07/12 03:48:46;;;;;;;;;;;;;;;17.13;83.76;101318.99;107497;1251;112882;-64
2023/07/12 03:51:22;;;;;;;;;;;;;;;17.15;83.78;101316.73;107510;1251;110122;-65
2023/07/12 03:53:58;;;;;;;;;;;;;;;17.21;83.65;101320.10;107460;1254;108011;-62
2023/07/12 03:56:26;;;;;;;;;;;;;;;17.26;83.53;101324.88;107602;1251;99092;-62
2023/07/12 03:58:54;;;;;;;;;;;;;;;17.24;83.49;101324.52;107577;1251;99253;-61
2023/07/12 04:01:22;;;;;;;;;;;;;;;17.21;83.05;101326.08;107489;1251;113472;-61
2023/07/12 04:03:50;;;;;;;;;;;;;;;17.25;83.14;101332.95;107455;1251;109386;-62
2023/07/12 04:06:18;;;;;;;;;;;;;;;17.29;83.07;101335.61;107467;1254;107615;-62
2023/07/12 04:08:46;;;;;;;;;;;;;;;17.29;83.15;101337.79;107482;1254;99069;-62
2023/07/12 04:11:23;;;;;;;;;;;;;;;17.30;83.01;101337.27;107434;1254;99256;-62
2023/07/12 04:13:52;;;;;;;;;;;;;;;17.29;83.04;101335.58;107604;1254;113003;-60
2023/07/12 04:16:21;;;;;;;;;;;;;;;17.25;82.70;101331.91;107601;1256;109016;-62
2023/07/12 04:18:49;;;;;;;;;;;;;;;17.28;82.72;101335.27;107599;1251;108622;-64
2023/07/12 04:21:18;;;;;;;;;;;;;;;17.34;82.65;101344.46;107549;1251;99051;-61
2023/07/12 04:23:49;;;;;;;;;;;;;;;17.39;82.37;101341.58;107599;1254;99327;-63
2023/07/12 04:26:20;;;;;;;;;;;;;;;17.40;82.32;101340.21;107654;1253;111729;-61
2023/07/12 04:28:52;;;;;;;;;;;;;;;17.40;82.20;101335.09;107504;1254;109372;-61
2023/07/12 04:31:20;;;;;;;;;;;;;;;17.46;82.20;101332.06;107472;1254;108257;-63
2023/07/12 04:33:49;;;;;;;;;;;;;;;17.53;82.11;101334.36;107603;1254;100504;-61
2023/07/12 04:36:18;;;;;;;;;;;;;;;17.59;81.95;101332.66;107635;1251;99163;-61
2023/07/12 04:38:46;;;;;;;;;;;;;;;17.62;81.64;101336.14;107529;1251;113208;-61
2023/07/12 04:41:14;;;;;;;;;;;;;;;17.68;81.48;101337.52;107458;1251;110026;-61
2023/07/12 04:43:45;;;;;;;;;;;;;;;17.69;81.06;101335.39;107587;1251;107531;-63
2023/07/12 04:46:17;;;;;;;;;;;;;;;17.65;80.87;101328.41;107496;1251;99055;-64
2023/07/12 04:48:45;;;;;;;;;;;;;;;17.68;80.82;101334.40;107513;1251;99310;-62
2023/07/12 04:51:14;;;;;;;;;;;;;;;17.71;80.66;101334.27;107496;1254;113691;-62
2023/07/12 04:53:45;;;;;;;;;;;;;;;17.76;80.65;101329.23;107600;1251;109326;-62
2023/07/12 04:56:16;;;;;;;;;;;;;;;17.82;80.48;101325.29;107464;1251;108025;-61
2023/07/12 04:58:43;;;;;;;;;;;;;;;17.89;80.69;101327.05;107437;1251;99156;-61
2023/07/12 05:01:13;;;;;;;;;;;;;;;17.97;80.52;101325.07;107474;1251;99194;-62
2023/07/12 05:03:41;;;;;;;;;;;;;;;18.04;80.36;101322.11;107587;1254;111939;-61
2023/07/12 05:06:09;;;;;;;;;;;;;;;18.10;80.01;101321.08;107628;1251;109124;-62
2023/07/12 05:08:50;;;;;;;;;;;;;;;18.12;79.57;101320.52;107474;1251;108633;-62
2023/07/12 05:11:18;;;;;;;;;;;;;;;18.15;79.43;101319.09;107434;1251;99272;-62
2023/07/12 05:13:46;;;;;;;;;;;;;;;18.19;79.38;101318.67;107644;1256;99175;-61
2023/07/12 05:16:15;;;;;;;;;;;;;;;18.23;79.29;101318.74;107638;1254;113000;-63
2023/07/12 05:18:43;;;;;;;;;;;;;;;18.27;79.33;101317.41;107611;1253;109261;-63
2023/07/12 05:21:11;;;;;;;;;;;;;;;18.33;79.50;101325.70;107585;1256;107190;-62
2023/07/12 05:23:39;;;;;;;;;;;;;;;18.39;79.50;101331.46;107477;1251;99157;-61
2023/07/12 05:26:08;;;;;;;;;;;;;;;18.44;79.47;101330.95;107449;1251;99061;-61
2023/07/12 05:28:36;;;;;;;;;;;;;;;18.48;79.00;101325.58;107463;1251;112701;-61
2023/07/12 05:31:06;;;;;;;;;;;;;;;18.51;79.03;101325.23;107513;1251;108880;-61
2023/07/12 05:33:34;;;;;;;;;;;;;;;18.55;78.89;101323.52;107503;1254;106510;-62
2023/07/12 05:36:03;;;;;;;;;;;;;;;18.59;78.52;101321.27;107486;1251;99172;-63
2023/07/12 05:38:31;;;;;;;;;;;;;;;18.60;78.27;101327.33;107466;1251;99252;-62
2023/07/12 05:41:00;;;;;;;;;;;;;;;18.59;77.48;101329.70;107474;1251;112519;-60
2023/07/12 05:43:28;;;;;;;;;;;;;;;18.62;77.47;101328.91;107545;1252;109630;-61
2023/07/12 05:45:59;;;;;;;;;;;;;;;18.68;77.70;101327.87;107641;1251;108920;-62
2023/07/12 05:48:27;;;;;;;;;;;;;;;18.71;76.96;101330.34;107528;1254;99159;-61
2023/07/12 05:50:56;;;;;;;;;;;;;;;18.76;77.03;101340.59;107672;1251;99143;-63
2023/07/12 05:53:24;;;;;;;;;;;;;;;18.79;76.50;101340.55;107594;1254;112083;-61
2023/07/12 05:55:55;;;;;;;;;;;;;;;18.82;76.31;101335.34;107497;1254;110325;-62
2023/07/12 05:58:24;;;;;;;;;;;;;;;18.84;75.65;101333.45;107586;1254;107408;-62
2023/07/12 06:00:55;;;;;;;;;;;;;;;18.86;75.59;101332.87;107597;1251;99128;-62
2023/07/12 06:03:24;;;;;;;;;;;;;;;18.90;75.57;101328.62;107525;1251;99230;-63
2023/07/12 06:05:58;;;;;;;;;;;;;;;18.94;75.00;101328.91;107509;1251;112153;-62
2023/07/12 06:08:29;;;;;;;;;;;;;;;18.98;74.88;101328.65;107604;1256;110007;-65
2023/07/12 06:11:00;;;;;;;;;;;;;;;19.03;74.49;101326.89;107510;1251;107813;-60
2023/07/12 06:13:28;;;;;;;;;;;;;;;19.08;74.35;101323.45;107484;1254;99198;-61
2023/07/12 06:15:57;;;;;;;;;;;;;;;19.13;74.21;101329.42;107534;1251;99322;-64
2023/07/12 06:18:25;;;;;;;;;;;;;;;19.17;72.45;101315.36;107468;1251;112728;-63
2023/07/12 06:20:57;;;;;;;;;;;;;;;19.19;72.50;101316.73;107558;1251;109967;-62
2023/07/12 06:23:26;;;;;;;;;;;;;;;19.23;72.33;101313.15;107492;1251;108333;-61
2023/07/12 06:25:58;;;;;;;;;;;;;;;19.29;72.25;101315.25;107478;1251;99179;-62
2023/07/12 06:28:26;;;;;;;;;;;;;;;19.36;72.28;101311.35;107526;1251;99176;-62
2023/07/12 06:30:54;;;;;;;;;;;;;;;19.42;72.23;101310.23;107517;1251;112145;-62
2023/07/12 06:33:22;;;;;;;;;;;;;;;19.46;70.35;101308.73;107501;1251;111117;-62
2023/07/12 06:35:51;;;;;;;;;;;;;;;19.48;69.13;101311.53;107507;1251;106674;-63
2023/07/12 06:38:19;;;;;;;;;;;;;;;19.52;69.18;101310.89;107574;1252;99182;-61
2023/07/12 06:40:47;;;;;;;;;;;;;;;19.58;69.39;101304.39;107615;1254;99148;-63
2023/07/12 06:43:15;;;;;;;;;;;;;;;19.62;68.60;101299.64;107641;1254;114082;-62
2023/07/12 06:45:43;;;;;;;;;;;;;;;19.69;67.24;101294.81;107641;1254;110264;-62
2023/07/12 06:48:12;;;;;;;;;;;;;;;19.77;67.69;101293.42;107535;1254;108569;-63
2023/07/12 06:50:40;;;;;;;;;;;;;;;19.82;68.31;101298.22;107655;1251;99165;-62
2023/07/12 06:53:08;;;;;;;;;;;;;;;19.87;68.16;101298.17;107536;1251;99164;-62
2023/07/12 06:55:41;;;;;;;;;;;;;;;19.92;67.74;101294.75;107506;1251;112923;-62
2023/07/12 06:58:09;;;;;;;;;;;;;;;19.96;67.77;101301.84;107535;1251;109183;-62
2023/07/12 07:00:38;;;;;;;;;;;;;;;20.01;67.83;101307.11;107479;1254;108192;-62
2023/07/12 07:03:09;;;;;;;;;;;;;;;20.07;67.75;101301.49;107461;1254;98349;-60
2023/07/12 07:05:41;;;;;;;;;;;;;;;20.14;67.72;101304.13;107645;1253;101136;-62
2023/07/12 07:08:11;;;;;;;;;;;;;;;20.21;67.64;101303.74;107640;1251;112652;-62
2023/07/12 07:10:39;;;;;;;;;;;;;;;20.27;66.66;101297.02;107603;1256;108849;-61
2023/07/12 07:13:07;;;;;;;;;;;;;;;20.33;66.43;101296.09;107487;1254;107026;-61
2023/07/12 07:15:35;;;;;;;;;;;;;;;20.41;65.67;101293.20;107484;1251;99166;-66
2023/07/12 07:18:03;;;;;;;;;;;;;;;20.47;65.74;101286.98;107556;1251;99167;-62
2023/07/12 07:20:31;;;;;;;;;;;;;;;20.53;64.94;101282.38;107573;1251;111936;-63
2023/07/12 07:23:00;;;;;;;;;;;;;;;20.58;63.29;101279.81;107607;1251;110057;-62
2023/07/12 07:25:28;;;;;;;;;;;;;;;20.63;63.71;101282.85;107541;1251;107401;-61
2023/07/12 07:27:56;;;;;;;;;;;;;;;20.71;63.59;101285.87;107542;1254;99329;-61
2023/07/12 07:30:26;;;;;;;;;;;;;;;20.78;62.66;101280.13;107656;1254;99167;-63
2023/07/12 07:32:55;;;;;;;;;;;;;;;20.82;61.05;101282.54;107658;1254;113429;-63
2023/07/12 07:35:23;;;;;;;;;;;;;;;20.88;61.73;101282.73;107627;1254;109721;-63
2023/07/12 07:37:52;;;;;;;;;;;;;;;20.95;60.98;101281.06;107494;1253;108440;-63
2023/07/12 07:40:20;;;;;;;;;;;;;;;21.03;59.29;101281.22;107644;1251;99180;-63
2023/07/12 07:42:48;;;;;;;;;;;;;;;21.08;59.29;101281.84;107621;1251;99093;-62
2023/07/12 07:45:16;;;;;;;;;;;;;;;21.12;57.38;101284.73;107678;1251;112619;-62
2023/07/12 07:47:44;;;;;;;;;;;;;;;21.17;57.60;101281.95;107649;1251;109414;-63
2023/07/12 07:50:12;;;;;;;;;;;;;;;21.25;57.38;101279.91;107624;1251;107608;-62
2023/07/12 07:52:40;;;;;;;;;;;;;;;21.32;56.74;101282.43;107566;1251;99156;-62
2023/07/12 07:55:11;;;;;;;;;;;;;;;21.39;55.11;101288.30;107608;1254;99172;-61
2023/07/12 07:57:39;;;;;;;;;;;;;;;21.43;55.23;101291.59;107664;1254;113847;-62
2023/07/12 08:00:10;;;;;;;;;;;;;;;21.47;54.58;101287.11;107506;1254;109926;-62
2023/07/12 08:02:42;;;;;;;;;;;;;;;21.52;53.49;101287.41;106869;1251;1007609;-62
2023/07/12 08:05:11;;;;;;;;;;;;;;;21.60;53.31;101285.48;107632;1251;99141;-63
2023/07/12 08:07:40;;;;;;;;;;;;;;;21.71;52.60;101290.17;107631;1253;99175;-61
2023/07/12 08:10:10;;;;;;;;;;;;;;;21.76;52.35;101285.12;107630;1251;113609;-62
2023/07/12 08:12:38;;;;;;;;;;;;;;;21.80;53.13;101284.73;107636;1251;108963;-64
2023/07/12 08:15:06;;;;;;;;;;;;;;;21.88;53.70;101279.82;107598;1256;107791;-63
2023/07/12 08:17:35;;;;;;;;;;;;;;;21.98;52.25;101279.55;107614;1254;99166;-62
2023/07/12 08:20:05;;;;;;;;;;;;;;;22.07;52.49;101283.84;107638;1251;99191;-63
2023/07/12 08:22:32;;;;;;;;;;;;;;;22.17;52.18;101286.56;107622;1251;112316;-63
2023/07/12 08:25:01;;;;;;;;;;;;;;;22.28;51.93;101284.84;107603;1254;108240;-62
2023/07/12 08:27:30;;;;;;;;;;;;;;;22.38;51.31;101284.04;107568;1253;107989;-61
2023/07/12 08:29:59;;;;;;;;;;;;;;;22.50;50.53;101282.13;107558;1252;99201;-63
2023/07/12 08:32:28;;;;;;;;;;;;;;;22.61;50.94;101285.48;107557;1254;99160;-64
2023/07/12 08:34:57;;;;;;;;;;;;;;;22.72;50.86;101284.89;107480;1253;113446;-62
2023/07/12 08:37:26;;;;;;;;;;;;;;;22.83;50.41;101282.95;107589;1254;109113;-62
2023/07/12 08:39:54;;;;;;;;;;;;;;;22.92;49.59;101276.61;107577;1253;108609;-62
2023/07/12 08:42:33;;;;;;;;;;;;;;;23.03;49.53;101279.52;107560;1254;99664;-63
2023/07/12 08:45:02;;;;;;;;;;;;;;;23.12;48.97;101279.92;107561;1253;99045;-61
2023/07/12 08:47:35;;;;;;;;;;;;;;;23.25;47.93;101272.41;107648;1254;112154;-63
2023/07/12 08:50:12;;;;;;;;;;;;;;;23.42;47.59;101271.25;107566;1253;109340;-62
2023/07/12 08:52:40;;;;;;;;;;;;;;;23.55;45.83;101266.66;107603;1252;107043;-62
2023/07/12 08:55:12;;;;;;;;;;;;;;;23.68;46.70;101269.16;107617;1251;99279;-62
2023/07/12 08:57:41;;;;;;;;;;;;;;;23.81;46.32;101264.29;107666;1254;99170;-61
2023/07/12 09:00:19;;;;;;;;;;;;;;;23.96;46.06;101259.69;107621;1251;113731;-63
2023/07/12 09:02:47;;;;;;;;;;;;;;;24.13;46.00;101260.30;107543;1251;109683;-63
2023/07/12 09:05:21;;;;;;;;;;;;;;;24.27;43.50;101250.58;107591;1250;108766;-63
2023/07/12 09:08:00;;;;;;;;;;;;;;;24.47;43.95;101239.98;107483;1251;99163;-64
2023/07/12 09:10:29;;;;;;;;;;;;;;;24.67;42.74;101235.60;107520;1251;99179;-60
2023/07/12 09:12:59;;;;;;;;;;;;;;;24.86;42.46;101237.97;107525;1251;111983;-61
2023/07/12 09:15:36;;;;;;;;;;;;;;;25.06;41.65;101236.52;107651;1253;109791;-63
2023/07/12 09:18:05;;;;;;;;;;;;;;;25.29;39.80;101230.31;107629;1254;108649;-61
2023/07/12 09:20:34;;;;;;;;;;;;;;;25.48;40.57;101231.47;107581;1253;99165;-63
2023/07/12 09:23:03;;;;;;;;;;;;;;;25.71;39.47;101232.88;107606;1254;99169;-63
2023/07/12 09:25:35;;;;;;;;;;;;;;;25.95;38.38;101229.27;107636;1251;112721;-62
2023/07/12 09:28:03;;;;;;;;;;;;;;;26.20;38.15;101218.75;107646;1251;108858;-65
2023/07/12 09:30:33;;;;;;;;;;;;;;;26.48;39.49;101216.87;107617;1254;108027;-63
2023/07/12 09:33:03;;;;;;;;;;;;;;;26.80;36.38;101207.59;107616;1254;99617;-64
2023/07/12 09:35:39;;;;;;;;;;;;;;;27.06;37.40;101195.84;107665;1253;99169;-62
2023/07/12 09:38:09;;;;;;;;;;;;;;;27.41;36.61;101190.02;107590;1251;113334;-61
2023/07/12 09:40:41;;;;;;;;;;;;;;;27.70;34.73;101191.23;107632;1252;109514;-63
2023/07/12 09:43:21;;;;;;;;;;;;;;;27.96;35.48;101201.41;107592;1251;107836;-60
2023/07/12 09:45:55;;;;;;;;;;;;;;;28.29;34.06;101202.33;107622;1254;99178;-60
2023/07/12 09:48:53;;;;;;;;;;;;;;;28.54;32.82;101201.62;107655;1251;99057;-62
2023/07/12 09:51:40;;;;;;;;;;;;;;;28.84;33.17;101203.36;107654;1251;112260;-61
2023/07/12 09:54:23;;;;;;;;;;;;;;;29.11;32.00;101207.83;107615;1253;109723;-61
2023/07/12 09:57:03;;;;;;;;;;;;;;;29.40;32.57;101202.54;107601;1251;107714;-62
2023/07/12 09:59:36;;;;;;;;;;;;;;;29.76;31.98;101194.66;107534;1251;99167;-62
2023/07/12 10:02:23;;;;;;;;;;;;;;;30.08;30.84;101190.17;107527;1251;99198;-62
2023/07/12 10:04:54;;;;;;;;;;;;;;;30.48;31.36;101184.80;107568;1254;113672;-60
2023/07/12 10:07:42;;;;;;;;;;;;;;;30.80;30.82;101181.88;107539;1254;109651;-60
2023/07/12 10:10:17;;;;;;;;;;;;;;;31.16;31.10;101184.98;107508;1251;107528;-61
2023/07/12 10:13:00;;;;;;;;;;;;;;;31.42;28.93;101176.86;107512;1250;99280;-61
2023/07/12 10:15:32;;;;;;;;;;;;;;;31.74;29.29;101156.07;107515;1254;99204;-61
2023/07/12 10:18:00;;;;;;;;;;;;;;;32.05;29.44;101157.73;107579;1251;111683;-62
2023/07/12 10:20:29;;;;;;;;;;;;;;;32.43;27.51;101164.52;107636;1252;110466;-63
2023/07/12 10:22:57;;;;;;;;;;;;;;;32.89;28.02;101154.90;107632;1251;108142;-62
2023/07/12 10:25:28;;;;;;;;;;;;;;;33.49;26.88;101157.90;107598;1254;99978;-62
2023/07/12 10:28:14;;;;;;;;;;;;;;;34.01;25.83;101156.77;107629;1254;99153;-62
2023/07/12 10:30:44;;;;;;;;;;;;;;;34.49;25.62;101157.22;107607;1255;113681;-60
2023/07/12 10:33:19;;;;;;;;;;;;;;;34.90;24.26;101147.40;107645;1251;110007;-61
2023/07/12 10:35:49;;;;;;;;;;;;;;;35.28;24.86;101151.98;107595;1251;107529;-59
2023/07/12 10:38:21;;;;;;;;;;;;;;;35.68;24.37;101154.33;107539;1251;99031;-61
2023/07/12 10:40:52;;;;;;;;;;;;;;;36.06;24.60;101150.66;107622;1251;99239;-62
2023/07/12 10:43:31;;;;;;;;;;;;;;;36.43;23.69;101145.79;107610;1254;112651;-61
2023/07/12 10:46:03;;;;;;;;;;;;;;;36.85;23.27;101146.02;107655;1255;109235;-61
2023/07/12 10:48:32;;;;;;;;;;;;;;;37.12;22.11;101138.67;107660;1255;108573;-62
2023/07/12 10:51:32;;;;;;;;;;;;;;;37.25;21.83;101136.02;107560;1254;99073;-62
2023/07/12 10:54:01;;;;;;;;;;;;;;;37.52;21.70;101131.12;107426;1251;99086;-63
2023/07/12 10:56:38;;;;;;;;;;;;;;;37.71;21.64;101125.63;107546;1254;112730;-62
2023/07/12 10:59:27;;;;;;;;;;;;;;;37.93;21.51;101123.88;107636;1251;109741;-63
2023/07/12 11:01:55;;;;;;;;;;;;;;;38.25;21.05;101120.38;107591;1251;106804;-60
2023/07/12 11:04:32;;;;;;;;;;;;;;;38.39;20.93;101122.73;107664;1251;99298;-63
2023/07/12 11:07:08;;;;;;;;;;;;;;;38.67;20.90;101120.41;107595;1250;99156;-60
2023/07/12 11:09:42;;;;;;;;;;;;;;;39.21;20.93;101123.33;107604;1251;112596;-61
2023/07/12 11:12:15;;;;;;;;;;;;;;;39.30;19.16;101124.29;107545;1251;109055;-61
2023/07/12 11:14:46;;;;;;;;;;;;;;;39.47;20.93;101125.52;107575;1250;108545;-61
2023/07/12 11:17:16;;;;;;;;;;;;;;;39.96;21.27;101120.86;107559;1253;99157;-60
2023/07/12 11:19:46;;;;;;;;;;;;;;;40.35;19.58;101121.25;107682;1254;99058;-61
2023/07/12 11:22:14;;;;;;;;;;;;;;;40.31;17.86;101114.83;107606;1254;113427;-61
2023/07/12 11:24:42;;;;;;;;;;;;;;;40.32;17.44;101113.33;107616;1253;109776;-65
2023/07/12 11:27:32;;;;;;;;;;;;;;;40.28;17.02;101112.63;107603;1254;108271;-62
2023/07/12 11:30:23;;;;;;;;;;;;;;;40.23;17.43;101104.61;107605;1251;99179;-61
2023/07/12 11:33:01;;;;;;;;;;;;;;;40.45;17.35;101093.54;107578;1251;99247;-62
2023/07/12 11:35:30;;;;;;;;;;;;;;;40.77;18.57;101093.14;107608;1253;113161;-61
2023/07/12 11:37:58;;;;;;;;;;;;;;;41.24;18.56;101083.17;107603;1251;108751;-64
2023/07/12 11:40:32;;;;;;;;;;;;;;;41.63;17.80;101082.38;107510;1254;108622;-62
2023/07/12 11:43:39;;;;;;;;;;;;;;;42.03;17.23;101077.91;107643;1254;99237;-61
2023/07/12 11:46:15;;;;;;;;;;;;;;;42.24;16.17;101074.98;107166;1257;99687;-61
2023/07/12 11:48:50;;;;;;;;;;;;;;;42.48;16.63;101068.30;107136;1259;112853;-61
2023/07/12 11:51:20;;;;;;;;;;;;;;;42.78;16.11;101065.78;107135;1257;109121;-61
2023/07/12 11:53:54;;;;;;;;;;;;;;;42.97;15.56;101066.27;107126;1261;108475;-66
2023/07/12 11:56:22;;;;;;;;;;;;;;;43.33;16.41;101058.76;107081;1260;99192;-63
2023/07/12 11:58:50;;;;;;;;;;;;;;;43.68;16.18;101049.85;106913;1260;99262;-62
2023/07/12 12:01:21;;;;;;;;;;;;;;;44.06;15.77;101042.61;107181;1257;112856;-62
2023/07/12 12:03:50;;;;;;;;;;;;;;;44.21;15.37;101037.77;107141;1258;109397;-62
2023/07/12 12:06:19;;;;;;;;;;;;;;;44.32;14.72;101025.52;107135;1257;107916;-62
2023/07/12 12:08:49;;;;;;;;;;;;;;;44.66;15.20;101021.23;107121;1257;99093;-65
2023/07/12 12:11:18;;;;;;;;;;;;;;;45.07;15.51;101013.04;107129;1257;99066;-65
2023/07/12 12:13:51;;;;;;;;;;;;;;;45.16;14.02;101009.02;107155;1257;113821;-62
2023/07/12 12:16:22;;;;;;;;;;;;;;;44.89;14.23;101000.43;107218;1254;108751;-62
2023/07/12 12:18:51;;;;;;;;;;;;;;;45.04;14.96;100991.47;107627;1252;107973;-62
2023/07/12 12:21:20;;;;;;;;;;;;;;;45.37;14.59;100983.33;107522;1251;99048;-61
2023/07/12 12:24:06;;;;;;;;;;;;;;;45.72;13.52;100979.98;107509;1251;99156;-62
2023/07/12 12:26:36;;;;;;;;;;;;;;;45.71;13.21;100973.64;107657;1251;113556;-61
2023/07/12 12:29:05;;;;;;;;;;;;;;;45.68;14.05;100969.19;107692;1251;108762;-61
2023/07/12 12:31:37;;;;;;;;;;;;;;;45.88;14.54;100968.58;107518;1251;108975;-61
2023/07/12 12:34:12;;;;;;;;;;;;;;;46.21;13.63;100967.04;107557;1251;99163;-61
2023/07/12 12:36:54;;;;;;;;;;;;;;;46.32;13.12;100965.92;107567;1251;99278;-61
2023/07/12 12:39:22;;;;;;;;;;;;;;;46.10;13.42;100964.53;107617;1253;113312;-61